Buenos Aires, Argentina
Current Conditions -  °F | °C
As of 9:00 PM on Sunday 23 Nov 2014 (Local Time) from SABE Reporting Station
Clear Clear  
Wind Chill: 77°   Ceiling: Unl
Heat Index: 79°   Visibility: 6mi
Dew Point: 59°   Wind: 17mph
Humidity: 54%   Direction: 360°N
Pressure: 29.71"   Gusts: NA
Location:  34.61°S, 58.37°W
Report Text: SABE 240000Z 36015KT CAVOK 25/15 Q1006
Loading
Personal Weather Stations






























Interactive Weather Map New forecast layout! Learn more

10-Day Weather Forecast

Advertisements
Track Severe Weather on mobile